sensor_id;sensor_type;location;lat;lon;timestamp;pressure;altitude;pressure_sealevel;temperature;humidity
5238;BME280;2639;49.700;7.962;2022-09-09T09:46:28;98364.97;;;21.90;64.22
5238;BME280;2639;49.700;7.962;2022-09-09T09:49:52;98371.66;;;22.15;62.83
5238;BME280;2639;49.700;7.962;2022-09-09T09:53:20;98379.56;;;21.80;63.73
5238;BME280;2639;49.700;7.962;2022-09-09T09:56:31;98373.75;;;21.57;65.54
5238;BME280;2639;49.700;7.962;2022-09-09T09:59:45;98379.09;;;21.29;68.02
5238;BME280;2639;49.700;7.962;2022-09-09T10:03:14;98375.31;;;20.86;71.77
5238;BME280;2639;49.700;7.962;2022-09-09T10:06:32;98374.34;;;20.52;72.21
5238;BME280;2639;49.700;7.962;2022-09-09T10:09:53;98366.63;;;20.26;74.75
5238;BME280;2639;49.700;7.962;2022-09-09T10:13:11;98372.03;;;20.61;73.90
5238;BME280;2639;49.700;7.962;2022-09-09T10:16:44;98352.69;;;21.51;73.34
5238;BME280;2639;49.700;7.962;2022-09-09T10:20:13;98350.56;;;22.08;67.20
5238;BME280;2639;49.700;7.962;2022-09-09T10:23:43;98351.84;;;22.66;65.88
5238;BME280;2639;49.700;7.962;2022-09-09T10:26:58;98343.25;;;23.17;63.50
5238;BME280;2639;49.700;7.962;2022-09-09T10:30:15;98343.75;;;23.98;61.68
5238;BME280;2639;49.700;7.962;2022-09-09T10:33:30;98337.22;;;24.32;60.34
5238;BME280;2639;49.700;7.962;2022-09-09T10:36:46;98329.84;;;24.71;60.02
5238;BME280;2639;49.700;7.962;2022-09-09T10:40:05;98323.44;;;25.24;57.93
5238;BME280;2639;49.700;7.962;2022-09-09T10:43:39;98319.31;;;25.55;56.78
5238;BME280;2639;49.700;7.962;2022-09-09T10:47:02;98330.25;;;26.10;57.32
5238;BME280;2639;49.700;7.962;2022-09-09T10:50:28;98324.00;;;25.88;55.64
5238;BME280;2639;49.700;7.962;2022-09-09T10:54:15;98328.66;;;25.19;56.94
5238;BME280;2639;49.700;7.962;2022-09-09T10:57:34;98338.88;;;24.26;58.96
5238;BME280;2639;49.700;7.962;2022-09-09T11:00:53;98342.09;;;23.51;62.31
5238;BME280;2639;49.700;7.962;2022-09-09T11:04:13;98337.75;;;22.59;63.43
5238;BME280;2639;49.700;7.962;2022-09-09T11:07:33;98325.84;;;22.75;63.85
5238;BME280;2639;49.700;7.962;2022-09-09T11:10:49;98323.16;;;22.71;61.72
5238;BME280;2639;49.700;7.962;2022-09-09T11:14:10;98316.25;;;23.21;61.00
5238;BME280;2639;49.700;7.962;2022-09-09T11:17:26;98320.31;;;22.60;60.62
5238;BME280;2639;49.700;7.962;2022-09-09T11:20:39;98316.38;;;22.38;60.32
5238;BME280;2639;49.700;7.962;2022-09-09T11:23:56;98336.13;;;22.66;60.93
5238;BME280;2639;49.700;7.962;2022-09-09T11:27:11;98334.81;;;22.44;57.92
5238;BME280;2639;49.700;7.962;2022-09-09T11:30:30;98338.22;;;22.00;58.57
5238;BME280;2639;49.700;7.962;2022-09-09T11:34:16;98346.75;;;21.57;60.31
5238;BME280;2639;49.700;7.962;2022-09-09T11:37:53;98348.88;;;21.38;61.84
5238;BME280;2639;49.700;7.962;2022-09-09T11:41:10;98346.28;;;21.05;61.83
5238;BME280;2639;49.700;7.962;2022-09-09T11:44:26;98351.81;;;20.86;63.85
5238;BME280;2639;49.700;7.962;2022-09-09T11:47:38;98359.06;;;20.64;63.45
5238;BME280;2639;49.700;7.962;2022-09-09T11:50:57;98408.44;;;20.29;70.92
5238;BME280;2639;49.700;7.962;2022-09-09T11:54:28;98425.63;;;19.70;76.53
5238;BME280;2639;49.700;7.962;2022-09-09T11:57:40;98442.66;;;19.10;79.98
5238;BME280;2639;49.700;7.962;2022-09-09T12:00:58;98437.63;;;18.46;81.74
5238;BME280;2639;49.700;7.962;2022-09-09T12:04:16;98417.06;;;17.86;82.66
5238;BME280;2639;49.700;7.962;2022-09-09T12:07:33;98406.19;;;17.54;87.26
5238;BME280;2639;49.700;7.962;2022-09-09T12:10:54;98399.25;;;17.32;89.15
5238;BME280;2639;49.700;7.962;2022-09-09T12:14:19;98400.22;;;17.15;90.14
5238;BME280;2639;49.700;7.962;2022-09-09T12:17:31;98408.91;;;16.96;92.36
5238;BME280;2639;49.700;7.962;2022-09-09T12:20:54;98390.81;;;16.78;93.03
5238;BME280;2639;49.700;7.962;2022-09-09T12:24:09;98388.75;;;16.51;96.44
5238;BME280;2639;49.700;7.962;2022-09-09T12:27:23;98385.41;;;16.54;98.66
5238;BME280;2639;49.700;7.962;2022-09-09T12:30:43;98385.94;;;16.47;99.29
5238;BME280;2639;49.700;7.962;2022-09-09T12:34:06;98392.41;;;16.56;97.73
5238;BME280;2639;49.700;7.962;2022-09-09T12:37:26;98399.66;;;16.63;100.00
5238;BME280;2639;49.700;7.962;2022-09-09T12:40:39;98390.13;;;16.62;97.87
5238;BME280;2639;49.700;7.962;2022-09-09T12:43:49;98393.00;;;16.69;98.65
5238;BME280;2639;49.700;7.962;2022-09-09T12:47:01;98375.38;;;17.62;97.81
5238;BME280;2639;49.700;7.962;2022-09-09T12:50:22;98376.25;;;19.22;91.64
5238;BME280;2639;49.700;7.962;2022-09-09T12:53:35;98370.69;;;20.47;77.68
5238;BME280;2639;49.700;7.962;2022-09-09T12:56:51;98346.91;;;21.30;74.47
5238;BME280;2639;49.700;7.962;2022-09-09T13:00:07;98338.38;;;21.70;73.87
5238;BME280;2639;49.700;7.962;2022-09-09T13:03:20;98337.25;;;21.60;75.77
5238;BME280;2639;49.700;7.962;2022-09-09T13:06:32;98327.91;;;21.02;73.47
5238;BME280;2639;49.700;7.962;2022-09-09T13:09:43;98329.38;;;20.60;78.49
5238;BME280;2639;49.700;7.962;2022-09-09T13:12:53;98339.50;;;20.21;78.94
5238;BME280;2639;49.700;7.962;2022-09-09T13:16:05;98326.84;;;20.94;81.87
5238;BME280;2639;49.700;7.962;2022-09-09T13:19:17;98316.38;;;22.00;76.93
5238;BME280;2639;49.700;7.962;2022-09-09T13:22:30;98306.56;;;22.27;72.48
5238;BME280;2639;49.700;7.962;2022-09-09T13:25:41;98310.28;;;22.39;70.98
5238;BME280;2639;49.700;7.962;2022-09-09T13:29:17;98305.41;;;23.01;68.38
5238;BME280;2639;49.700;7.962;2022-09-09T13:32:30;98317.31;;;22.84;66.20
5238;BME280;2639;49.700;7.962;2022-09-09T13:35:46;98320.06;;;22.08;67.79
5238;BME280;2639;49.700;7.962;2022-09-09T13:39:00;98313.13;;;21.71;72.01
5238;BME280;2639;49.700;7.962;2022-09-09T13:42:22;98310.34;;;21.30;76.30
5238;BME280;2639;49.700;7.962;2022-09-09T13:45:33;98311.31;;;21.00;77.43
5238;BME280;2639;49.700;7.962;2022-09-09T13:48:54;98316.44;;;20.64;76.81
5238;BME280;2639;49.700;7.962;2022-09-09T13:52:12;98309.94;;;20.51;78.29
5238;BME280;2639;49.700;7.962;2022-09-09T13:55:25;98314.78;;;20.37;78.29
5238;BME280;2639;49.700;7.962;2022-09-09T13:58:35;98313.22;;;20.13;78.53
5238;BME280;2639;49.700;7.962;2022-09-09T14:01:46;98307.25;;;19.89;79.28
5238;BME280;2639;49.700;7.962;2022-09-09T14:04:57;98313.28;;;19.61;80.54
5238;BME280;2639;49.700;7.962;2022-09-09T14:08:16;98316.50;;;19.52;82.94
5238;BME280;2639;49.700;7.962;2022-09-09T14:11:31;98324.16;;;19.47;80.86
5238;BME280;2639;49.700;7.962;2022-09-09T14:14:43;98337.53;;;19.31;81.99
5238;BME280;2639;49.700;7.962;2022-09-09T14:17:53;98327.88;;;19.28;84.28
5238;BME280;2639;49.700;7.962;2022-09-09T14:21:03;98332.41;;;19.34;85.28
5238;BME280;2639;49.700;7.962;2022-09-09T14:24:13;98327.69;;;19.22;83.36
5238;BME280;2639;49.700;7.962;2022-09-09T14:27:26;98325.84;;;19.20;84.36
5238;BME280;2639;49.700;7.962;2022-09-09T14:30:38;98329.03;;;19.11;85.23
5238;BME280;2639;49.700;7.962;2022-09-09T14:33:48;98329.81;;;19.08;85.07
5238;BME280;2639;49.700;7.962;2022-09-09T14:36:59;98335.81;;;19.07;86.37
5238;BME280;2639;49.700;7.962;2022-09-09T14:40:11;98333.03;;;18.77;85.08
5238;BME280;2639;49.700;7.962;2022-09-09T14:43:22;98349.16;;;18.44;82.54
5238;BME280;2639;49.700;7.962;2022-09-09T14:46:32;98324.38;;;18.30;83.94
5238;BME280;2639;49.700;7.962;2022-09-09T14:49:41;98314.50;;;18.21;84.63
5238;BME280;2639;49.700;7.962;2022-09-09T14:52:54;98306.09;;;18.28;86.83
5238;BME280;2639;49.700;7.962;2022-09-09T14:56:06;98299.06;;;18.48;88.75
5238;BME280;2639;49.700;7.962;2022-09-09T14:59:20;98292.34;;;18.78;85.90
5238;BME280;2639;49.700;7.962;2022-09-09T15:02:30;98283.06;;;19.11;85.61
5238;BME280;2639;49.700;7.962;2022-09-09T15:05:47;98278.66;;;19.36;82.76
5238;BME280;2639;49.700;7.962;2022-09-09T15:08:57;98289.25;;;19.42;82.22
5238;BME280;2639;49.700;7.962;2022-09-09T15:12:07;98268.44;;;19.42;81.88
5238;BME280;2639;49.700;7.962;2022-09-09T15:15:18;98268.41;;;19.41;82.47
5238;BME280;2639;49.700;7.962;2022-09-09T15:18:30;98268.03;;;19.30;81.28
5238;BME280;2639;49.700;7.962;2022-09-09T15:21:43;98270.78;;;19.07;83.43
5238;BME280;2639;49.700;7.962;2022-09-09T15:24:53;98277.59;;;19.04;82.58
5238;BME280;2639;49.700;7.962;2022-09-09T15:28:03;98283.06;;;19.11;83.39
5238;BME280;2639;49.700;7.962;2022-09-09T15:31:16;98294.41;;;19.13;84.02
5238;BME280;2639;49.700;7.962;2022-09-09T15:34:27;98301.66;;;19.22;84.33
5238;BME280;2639;49.700;7.962;2022-09-09T15:37:36;98308.44;;;19.17;83.67
5238;BME280;2639;49.700;7.962;2022-09-09T15:40:53;98310.97;;;19.16;83.01
5238;BME280;2639;49.700;7.962;2022-09-09T15:44:04;98315.16;;;19.12;83.67
5238;BME280;2639;49.700;7.962;2022-09-09T15:47:16;98319.41;;;19.08;85.38
5238;BME280;2639;49.700;7.962;2022-09-09T15:50:26;98318.16;;;18.97;85.19
5238;BME280;2639;49.700;7.962;2022-09-09T15:53:36;98309.22;;;18.90;86.33
5238;BME280;2639;49.700;7.962;2022-09-09T15:56:50;98310.69;;;18.82;87.39
5238;BME280;2639;49.700;7.962;2022-09-09T16:00:04;98333.78;;;18.75;87.28
5238;BME280;2639;49.700;7.962;2022-09-09T16:03:18;98334.94;;;18.81;87.64
5238;BME280;2639;49.700;7.962;2022-09-09T16:06:29;98334.06;;;18.81;88.72
5238;BME280;2639;49.700;7.962;2022-09-09T16:09:39;98341.13;;;18.85;89.32
5238;BME280;2639;49.700;7.962;2022-09-09T16:12:52;98345.22;;;18.78;89.13
5238;BME280;2639;49.700;7.962;2022-09-09T16:16:02;98355.56;;;18.77;88.63
5238;BME280;2639;49.700;7.962;2022-09-09T16:19:15;98377.31;;;18.79;88.08
5238;BME280;2639;49.700;7.962;2022-09-09T16:22:28;98409.81;;;18.67;96.21
5238;BME280;2639;49.700;7.962;2022-09-09T16:25:38;98405.94;;;18.11;96.45
5238;BME280;2639;49.700;7.962;2022-09-09T16:28:48;98401.66;;;17.70;98.16
5238;BME280;2639;49.700;7.962;2022-09-09T16:31:58;98408.38;;;17.43;100.00
5238;BME280;2639;49.700;7.962;2022-09-09T16:35:16;98407.19;;;17.16;100.00
5238;BME280;2639;49.700;7.962;2022-09-09T16:38:27;98410.47;;;17.12;100.00
5238;BME280;2639;49.700;7.962;2022-09-09T16:41:39;98395.59;;;16.88;100.00
5238;BME280;2639;49.700;7.962;2022-09-09T16:44:49;98384.84;;;16.79;100.00
5238;BME280;2639;49.700;7.962;2022-09-09T16:47:59;98393.13;;;16.72;100.00
5238;BME280;2639;49.700;7.962;2022-09-09T16:51:13;98392.50;;;16.58;100.00
5238;BME280;2639;49.700;7.962;2022-09-09T16:54:24;98390.50;;;16.52;100.00
5238;BME280;2639;49.700;7.962;2022-09-09T16:57:35;98398.91;;;16.47;100.00
5238;BME280;2639;49.700;7.962;2022-09-09T17:00:47;98398.69;;;16.42;100.00
5238;BME280;2639;49.700;7.962;2022-09-09T17:03:59;98395.81;;;16.36;100.00
5238;BME280;2639;49.700;7.962;2022-09-09T17:07:13;98390.28;;;16.28;100.00
5238;BME280;2639;49.700;7.962;2022-09-09T17:10:23;98387.34;;;16.20;100.00
5238;BME280;2639;49.700;7.962;2022-09-09T17:13:33;98385.88;;;16.08;100.00
5238;BME280;2639;49.700;7.962;2022-09-09T17:16:46;98382.34;;;15.88;100.00
5238;BME280;2639;49.700;7.962;2022-09-09T17:19:59;98373.84;;;15.72;100.00
5238;BME280;2639;49.700;7.962;2022-09-09T17:23:12;98373.88;;;15.56;100.00
5238;BME280;2639;49.700;7.962;2022-09-09T17:26:25;98377.94;;;15.51;100.00
5238;BME280;2639;49.700;7.962;2022-09-09T17:29:36;98392.81;;;15.55;100.00
5238;BME280;2639;49.700;7.962;2022-09-09T17:32:46;98402.84;;;15.49;100.00
5238;BME280;2639;49.700;7.962;2022-09-09T17:35:55;98409.44;;;15.26;100.00
5238;BME280;2639;49.700;7.962;2022-09-09T17:39:08;98407.50;;;15.22;100.00
5238;BME280;2639;49.700;7.962;2022-09-09T17:42:17;98416.84;;;15.18;100.00
5238;BME280;2639;49.700;7.962;2022-09-09T17:45:28;98424.84;;;15.06;100.00
5238;BME280;2639;49.700;7.962;2022-09-09T17:48:39;98411.91;;;15.06;100.00
5238;BME280;2639;49.700;7.962;2022-09-09T17:51:51;98421.53;;;15.09;100.00
5238;BME280;2639;49.700;7.962;2022-09-09T17:55:04;98423.28;;;15.10;100.00
5238;BME280;2639;49.700;7.962;2022-09-09T17:58:13;98420.06;;;15.14;100.00
5238;BME280;2639;49.700;7.962;2022-09-09T18:01:27;98428.47;;;15.10;100.00
5238;BME280;2639;49.700;7.962;2022-09-09T18:04:45;98424.75;;;15.05;100.00
5238;BME280;2639;49.700;7.962;2022-09-09T18:07:57;98430.34;;;14.96;100.00
5238;BME280;2639;49.700;7.962;2022-09-09T18:11:08;98429.78;;;15.02;100.00
5238;BME280;2639;49.700;7.962;2022-09-09T18:14:20;98430.97;;;15.08;100.00
5238;BME280;2639;49.700;7.962;2022-09-09T18:17:31;98434.75;;;15.15;100.00
5238;BME280;2639;49.700;7.962;2022-09-09T18:20:41;98454.66;;;15.16;100.00
5238;BME280;2639;49.700;7.962;2022-09-09T18:23:52;98472.50;;;15.11;100.00
5238;BME280;2639;49.700;7.962;2022-09-09T18:27:08;98471.94;;;15.17;100.00
5238;BME280;2639;49.700;7.962;2022-09-09T18:30:18;98475.00;;;15.10;100.00
5238;BME280;2639;49.700;7.962;2022-09-09T18:33:28;98485.34;;;15.10;100.00
5238;BME280;2639;49.700;7.962;2022-09-09T18:36:40;98515.50;;;15.09;100.00
5238;BME280;2639;49.700;7.962;2022-09-09T18:39:50;98522.69;;;15.15;100.00
5238;BME280;2639;49.700;7.962;2022-09-09T18:43:01;98519.59;;;15.06;100.00
5238;BME280;2639;49.700;7.962;2022-09-09T18:46:11;98512.69;;;15.05;100.00
5238;BME280;2639;49.700;7.962;2022-09-09T18:49:22;98504.91;;;15.05;100.00
5238;BME280;2639;49.700;7.962;2022-09-09T18:52:32;98508.13;;;15.01;100.00
5238;BME280;2639;49.700;7.962;2022-09-09T18:55:42;98502.97;;;15.01;100.00
5238;BME280;2639;49.700;7.962;2022-09-09T18:58:54;98497.16;;;15.05;100.00
5238;BME280;2639;49.700;7.962;2022-09-09T19:02:06;98502.66;;;15.11;100.00
5238;BME280;2639;49.700;7.962;2022-09-09T19:05:19;98499.41;;;15.15;100.00
5238;BME280;2639;49.700;7.962;2022-09-09T19:08:29;98499.59;;;15.18;100.00
5238;BME280;2639;49.700;7.962;2022-09-09T19:11:39;98494.56;;;15.21;100.00
5238;BME280;2639;49.700;7.962;2022-09-09T19:14:53;98493.69;;;15.21;100.00
5238;BME280;2639;49.700;7.962;2022-09-09T19:18:03;98489.88;;;15.14;100.00
5238;BME280;2639;49.700;7.962;2022-09-09T19:21:15;98486.22;;;15.10;100.00
5238;BME280;2639;49.700;7.962;2022-09-09T19:24:27;98482.03;;;14.96;100.00
5238;BME280;2639;49.700;7.962;2022-09-09T19:27:37;98473.97;;;14.90;100.00
5238;BME280;2639;49.700;7.962;2022-09-09T19:30:49;98472.81;;;14.85;100.00
5238;BME280;2639;49.700;7.962;2022-09-09T19:34:01;98478.22;;;14.89;100.00
5238;BME280;2639;49.700;7.962;2022-09-09T19:37:11;98467.09;;;14.90;100.00
5238;BME280;2639;49.700;7.962;2022-09-09T19:40:26;98471.53;;;14.93;100.00
5238;BME280;2639;49.700;7.962;2022-09-09T19:43:38;98463.88;;;14.94;100.00
5238;BME280;2639;49.700;7.962;2022-09-09T19:46:49;98469.94;;;14.95;100.00
5238;BME280;2639;49.700;7.962;2022-09-09T19:50:03;98470.19;;;15.00;100.00
5238;BME280;2639;49.700;7.962;2022-09-09T19:53:13;98476.31;;;15.02;100.00
5238;BME280;2639;49.700;7.962;2022-09-09T19:56:26;98469.25;;;14.99;100.00
5238;BME280;2639;49.700;7.962;2022-09-09T19:59:39;98480.53;;;15.00;100.00
5238;BME280;2639;49.700;7.962;2022-09-09T20:02:52;98487.31;;;14.98;100.00
5238;BME280;2639;49.700;7.962;2022-09-09T20:06:24;98491.66;;;14.99;100.00
5238;BME280;2639;49.700;7.962;2022-09-09T20:09:35;98486.19;;;14.92;100.00
5238;BME280;2639;49.700;7.962;2022-09-09T20:12:47;98480.81;;;14.89;100.00
5238;BME280;2639;49.700;7.962;2022-09-09T20:15:59;98477.59;;;14.93;100.00
5238;BME280;2639;49.700;7.962;2022-09-09T20:19:12;98483.00;;;14.98;100.00
5238;BME280;2639;49.700;7.962;2022-09-09T20:22:23;98480.53;;;15.00;100.00
5238;BME280;2639;49.700;7.962;2022-09-09T20:25:34;98477.75;;;14.97;100.00
5238;BME280;2639;49.700;7.962;2022-09-09T20:28:44;98486.41;;;14.97;100.00
5238;BME280;2639;49.700;7.962;2022-09-09T20:31:54;98487.06;;;14.93;100.00
5238;BME280;2639;49.700;7.962;2022-09-09T20:35:07;98485.19;;;14.90;100.00
5238;BME280;2639;49.700;7.962;2022-09-09T20:38:17;98485.25;;;14.92;100.00
5238;BME280;2639;49.700;7.962;2022-09-09T20:41:32;98483.59;;;14.92;100.00
5238;BME280;2639;49.700;7.962;2022-09-09T20:44:42;98479.22;;;14.91;100.00
5238;BME280;2639;49.700;7.962;2022-09-09T20:47:52;98492.22;;;14.93;100.00
5238;BME280;2639;49.700;7.962;2022-09-09T20:51:07;98493.94;;;14.92;100.00
5238;BME280;2639;49.700;7.962;2022-09-09T20:54:20;98498.28;;;14.93;100.00
5238;BME280;2639;49.700;7.962;2022-09-09T20:57:34;98498.75;;;14.86;100.00
5238;BME280;2639;49.700;7.962;2022-09-09T21:00:47;98489.25;;;14.85;100.00
5238;BME280;2639;49.700;7.962;2022-09-09T21:03:56;98492.28;;;14.78;100.00
5238;BME280;2639;49.700;7.962;2022-09-09T21:07:14;98496.41;;;14.75;100.00
5238;BME280;2639;49.700;7.962;2022-09-09T21:10:23;98491.97;;;14.72;100.00
5238;BME280;2639;49.700;7.962;2022-09-09T21:13:35;98488.56;;;14.73;100.00
5238;BME280;2639;49.700;7.962;2022-09-09T21:16:48;98486.94;;;14.75;100.00
5238;BME280;2639;49.700;7.962;2022-09-09T21:19:58;98492.84;;;14.72;100.00
5238;BME280;2639;49.700;7.962;2022-09-09T21:23:13;98481.63;;;14.72;100.00
5238;BME280;2639;49.700;7.962;2022-09-09T21:26:23;98482.50;;;14.72;100.00
